sensor_id;sensor_type;location;lat;lon;timestamp;P1;durP1;ratioP1;P2;durP2;ratioP2
13335;SDS011;6737;51.480;11.962;2022-09-25T00:00:40;2.23;;;1.80;;
13335;SDS011;6737;51.480;11.962;2022-09-25T00:03:08;2.90;;;1.90;;
13335;SDS011;6737;51.480;11.962;2022-09-25T00:05:35;2.77;;;2.07;;
13335;SDS011;6737;51.480;11.962;2022-09-25T00:08:02;2.77;;;1.90;;
13335;SDS011;6737;51.480;11.962;2022-09-25T00:10:28;2.67;;;2.00;;
13335;SDS011;6737;51.480;11.962;2022-09-25T00:12:55;2.00;;;1.80;;
13335;SDS011;6737;51.480;11.962;2022-09-25T00:15:21;2.77;;;2.40;;
13335;SDS011;6737;51.480;11.962;2022-09-25T00:17:46;2.97;;;2.27;;
13335;SDS011;6737;51.480;11.962;2022-09-25T00:20:14;2.10;;;1.90;;
13335;SDS011;6737;51.480;11.962;2022-09-25T00:22:41;2.40;;;1.97;;
13335;SDS011;6737;51.480;11.962;2022-09-25T00:25:13;3.17;;;2.23;;
13335;SDS011;6737;51.480;11.962;2022-09-25T00:27:40;2.33;;;2.13;;
13335;SDS011;6737;51.480;11.962;2022-09-25T00:30:07;3.00;;;1.87;;
13335;SDS011;6737;51.480;11.962;2022-09-25T00:32:35;3.80;;;2.10;;
13335;SDS011;6737;51.480;11.962;2022-09-25T00:35:01;2.83;;;2.17;;
13335;SDS011;6737;51.480;11.962;2022-09-25T00:37:27;2.20;;;1.60;;
13335;SDS011;6737;51.480;11.962;2022-09-25T00:39:54;1.70;;;1.57;;
13335;SDS011;6737;51.480;11.962;2022-09-25T00:42:21;2.43;;;2.00;;
13335;SDS011;6737;51.480;11.962;2022-09-25T00:44:59;3.70;;;2.00;;
13335;SDS011;6737;51.480;11.962;2022-09-25T00:47:37;14.93;;;5.73;;
13335;SDS011;6737;51.480;11.962;2022-09-25T00:50:30;8.93;;;6.40;;
13335;SDS011;6737;51.480;11.962;2022-09-25T00:53:16;9.33;;;5.93;;
13335;SDS011;6737;51.480;11.962;2022-09-25T00:55:55;6.43;;;5.20;;
13335;SDS011;6737;51.480;11.962;2022-09-25T00:58:23;7.10;;;5.50;;
13335;SDS011;6737;51.480;11.962;2022-09-25T01:00:52;7.30;;;5.43;;
13335;SDS011;6737;51.480;11.962;2022-09-25T01:03:18;6.77;;;5.50;;
13335;SDS011;6737;51.480;11.962;2022-09-25T01:05:45;9.17;;;5.80;;
13335;SDS011;6737;51.480;11.962;2022-09-25T01:08:14;8.27;;;6.20;;
13335;SDS011;6737;51.480;11.962;2022-09-25T01:10:43;12.00;;;6.10;;
13335;SDS011;6737;51.480;11.962;2022-09-25T01:13:10;9.37;;;5.77;;
13335;SDS011;6737;51.480;11.962;2022-09-25T01:15:38;9.07;;;6.23;;
13335;SDS011;6737;51.480;11.962;2022-09-25T01:30:13;7.70;;;5.40;;
13335;SDS011;6737;51.480;11.962;2022-09-25T01:35:19;6.23;;;4.80;;
13335;SDS011;6737;51.480;11.962;2022-09-25T01:40:53;6.30;;;4.77;;
13335;SDS011;6737;51.480;11.962;2022-09-25T01:43:29;6.27;;;4.73;;
13335;SDS011;6737;51.480;11.962;2022-09-25T01:46:03;6.53;;;4.73;;
13335;SDS011;6737;51.480;11.962;2022-09-25T01:48:36;5.73;;;4.70;;
13335;SDS011;6737;51.480;11.962;2022-09-25T01:51:07;5.93;;;4.97;;
13335;SDS011;6737;51.480;11.962;2022-09-25T01:53:42;6.43;;;4.53;;
13335;SDS011;6737;51.480;11.962;2022-09-25T01:56:19;8.07;;;4.73;;
13335;SDS011;6737;51.480;11.962;2022-09-25T01:58:59;5.70;;;4.40;;
13335;SDS011;6737;51.480;11.962;2022-09-25T02:01:39;5.70;;;4.63;;
13335;SDS011;6737;51.480;11.962;2022-09-25T02:06:34;6.30;;;4.83;;
13335;SDS011;6737;51.480;11.962;2022-09-25T02:09:07;6.30;;;4.60;;
13335;SDS011;6737;51.480;11.962;2022-09-25T02:11:39;5.03;;;4.40;;
13335;SDS011;6737;51.480;11.962;2022-09-25T02:14:13;6.97;;;4.37;;
13335;SDS011;6737;51.480;11.962;2022-09-25T02:17:11;6.70;;;4.70;;
13335;SDS011;6737;51.480;11.962;2022-09-25T02:20:01;6.37;;;4.63;;
13335;SDS011;6737;51.480;11.962;2022-09-25T02:22:46;6.70;;;4.70;;
13335;SDS011;6737;51.480;11.962;2022-09-25T02:25:29;6.60;;;5.10;;
13335;SDS011;6737;51.480;11.962;2022-09-25T02:28:04;6.33;;;4.50;;
13335;SDS011;6737;51.480;11.962;2022-09-25T02:30:30;7.80;;;5.03;;
13335;SDS011;6737;51.480;11.962;2022-09-25T02:32:56;6.60;;;4.87;;
13335;SDS011;6737;51.480;11.962;2022-09-25T02:35:23;5.70;;;4.77;;
13335;SDS011;6737;51.480;11.962;2022-09-25T02:37:50;6.70;;;5.10;;
13335;SDS011;6737;51.480;11.962;2022-09-25T02:40:17;5.60;;;4.63;;
13335;SDS011;6737;51.480;11.962;2022-09-25T02:42:49;6.43;;;4.90;;
13335;SDS011;6737;51.480;11.962;2022-09-25T02:55:59;5.40;;;4.60;;
13335;SDS011;6737;51.480;11.962;2022-09-25T02:58:28;8.70;;;4.77;;
13335;SDS011;6737;51.480;11.962;2022-09-25T03:01:05;5.70;;;4.23;;
13335;SDS011;6737;51.480;11.962;2022-09-25T03:03:36;6.40;;;4.60;;
13335;SDS011;6737;51.480;11.962;2022-09-25T03:06:03;6.50;;;4.97;;
13335;SDS011;6737;51.480;11.962;2022-09-25T03:08:33;6.00;;;4.83;;
13335;SDS011;6737;51.480;11.962;2022-09-25T03:11:06;7.33;;;5.00;;
13335;SDS011;6737;51.480;11.962;2022-09-25T03:13:37;6.83;;;5.00;;
13335;SDS011;6737;51.480;11.962;2022-09-25T03:16:09;5.90;;;4.60;;
13335;SDS011;6737;51.480;11.962;2022-09-25T03:18:36;7.13;;;4.87;;
13335;SDS011;6737;51.480;11.962;2022-09-25T03:21:02;6.10;;;4.43;;
13335;SDS011;6737;51.480;11.962;2022-09-25T03:23:29;6.47;;;4.77;;
13335;SDS011;6737;51.480;11.962;2022-09-25T03:25:56;8.57;;;5.27;;
13335;SDS011;6737;51.480;11.962;2022-09-25T03:28:23;7.07;;;5.13;;
13335;SDS011;6737;51.480;11.962;2022-09-25T03:30:59;7.57;;;5.47;;
13335;SDS011;6737;51.480;11.962;2022-09-25T03:33:29;7.03;;;5.07;;
13335;SDS011;6737;51.480;11.962;2022-09-25T03:36:07;7.50;;;5.83;;
13335;SDS011;6737;51.480;11.962;2022-09-25T03:38:35;9.63;;;5.70;;
13335;SDS011;6737;51.480;11.962;2022-09-25T03:41:02;9.00;;;6.40;;
13335;SDS011;6737;51.480;11.962;2022-09-25T03:43:33;7.23;;;4.97;;
13335;SDS011;6737;51.480;11.962;2022-09-25T03:46:04;7.50;;;5.63;;
13335;SDS011;6737;51.480;11.962;2022-09-25T03:48:32;6.63;;;5.40;;
13335;SDS011;6737;51.480;11.962;2022-09-25T03:50:58;8.20;;;6.20;;
13335;SDS011;6737;51.480;11.962;2022-09-25T03:53:25;9.37;;;6.43;;
13335;SDS011;6737;51.480;11.962;2022-09-25T03:55:52;12.30;;;6.50;;
13335;SDS011;6737;51.480;11.962;2022-09-25T03:58:18;6.40;;;5.20;;
13335;SDS011;6737;51.480;11.962;2022-09-25T04:00:44;7.17;;;5.53;;
13335;SDS011;6737;51.480;11.962;2022-09-25T04:03:11;6.53;;;5.33;;
13335;SDS011;6737;51.480;11.962;2022-09-25T04:05:38;7.30;;;5.47;;
13335;SDS011;6737;51.480;11.962;2022-09-25T04:08:04;7.47;;;5.30;;
13335;SDS011;6737;51.480;11.962;2022-09-25T04:10:31;7.03;;;5.00;;
13335;SDS011;6737;51.480;11.962;2022-09-25T04:12:57;7.87;;;5.00;;
13335;SDS011;6737;51.480;11.962;2022-09-25T04:15:23;6.90;;;5.40;;
13335;SDS011;6737;51.480;11.962;2022-09-25T04:17:50;6.50;;;5.20;;
13335;SDS011;6737;51.480;11.962;2022-09-25T04:20:19;7.20;;;5.60;;
13335;SDS011;6737;51.480;11.962;2022-09-25T04:22:45;6.10;;;5.00;;
13335;SDS011;6737;51.480;11.962;2022-09-25T04:25:10;10.10;;;6.07;;
13335;SDS011;6737;51.480;11.962;2022-09-25T04:27:36;6.70;;;5.07;;
13335;SDS011;6737;51.480;11.962;2022-09-25T04:30:03;8.83;;;5.87;;
13335;SDS011;6737;51.480;11.962;2022-09-25T04:32:29;6.53;;;4.90;;
13335;SDS011;6737;51.480;11.962;2022-09-25T04:35:13;6.23;;;5.10;;
13335;SDS011;6737;51.480;11.962;2022-09-25T04:37:39;8.47;;;5.67;;
13335;SDS011;6737;51.480;11.962;2022-09-25T04:40:05;7.17;;;5.57;;
13335;SDS011;6737;51.480;11.962;2022-09-25T04:42:31;8.83;;;5.80;;
13335;SDS011;6737;51.480;11.962;2022-09-25T04:44:57;9.23;;;5.50;;
13335;SDS011;6737;51.480;11.962;2022-09-25T04:47:24;7.60;;;5.33;;
13335;SDS011;6737;51.480;11.962;2022-09-25T04:49:54;7.23;;;5.80;;
13335;SDS011;6737;51.480;11.962;2022-09-25T04:52:20;6.60;;;5.03;;
13335;SDS011;6737;51.480;11.962;2022-09-25T04:54:46;8.17;;;5.80;;
13335;SDS011;6737;51.480;11.962;2022-09-25T04:57:13;6.70;;;5.03;;
13335;SDS011;6737;51.480;11.962;2022-09-25T04:59:43;7.50;;;5.23;;
13335;SDS011;6737;51.480;11.962;2022-09-25T05:02:12;7.10;;;5.30;;
13335;SDS011;6737;51.480;11.962;2022-09-25T05:04:39;8.50;;;5.87;;
13335;SDS011;6737;51.480;11.962;2022-09-25T05:07:05;7.43;;;5.50;;
13335;SDS011;6737;51.480;11.962;2022-09-25T05:09:31;7.20;;;5.40;;
13335;SDS011;6737;51.480;11.962;2022-09-25T05:11:58;7.53;;;5.67;;
13335;SDS011;6737;51.480;11.962;2022-09-25T05:14:24;8.60;;;6.13;;
13335;SDS011;6737;51.480;11.962;2022-09-25T05:16:50;7.17;;;5.50;;
13335;SDS011;6737;51.480;11.962;2022-09-25T05:19:15;9.07;;;6.40;;
13335;SDS011;6737;51.480;11.962;2022-09-25T05:21:41;8.23;;;6.57;;
13335;SDS011;6737;51.480;11.962;2022-09-25T05:24:07;7.47;;;5.83;;
13335;SDS011;6737;51.480;11.962;2022-09-25T05:26:34;10.03;;;6.13;;
13335;SDS011;6737;51.480;11.962;2022-09-25T05:29:03;8.23;;;5.80;;
13335;SDS011;6737;51.480;11.962;2022-09-25T05:31:30;8.97;;;6.37;;
13335;SDS011;6737;51.480;11.962;2022-09-25T05:33:56;7.93;;;5.93;;
13335;SDS011;6737;51.480;11.962;2022-09-25T05:36:22;7.77;;;6.13;;
13335;SDS011;6737;51.480;11.962;2022-09-25T05:38:48;8.27;;;6.13;;
13335;SDS011;6737;51.480;11.962;2022-09-25T05:41:14;7.53;;;5.77;;
13335;SDS011;6737;51.480;11.962;2022-09-25T05:43:40;9.33;;;6.33;;
13335;SDS011;6737;51.480;11.962;2022-09-25T05:46:08;6.53;;;5.30;;
13335;SDS011;6737;51.480;11.962;2022-09-25T05:48:35;8.20;;;5.77;;
13335;SDS011;6737;51.480;11.962;2022-09-25T05:51:01;9.90;;;6.00;;
13335;SDS011;6737;51.480;11.962;2022-09-25T05:53:27;10.57;;;6.93;;
13335;SDS011;6737;51.480;11.962;2022-09-25T05:55:56;7.10;;;5.60;;
13335;SDS011;6737;51.480;11.962;2022-09-25T05:58:24;7.90;;;5.90;;
13335;SDS011;6737;51.480;11.962;2022-09-25T06:00:50;6.87;;;5.60;;
13335;SDS011;6737;51.480;11.962;2022-09-25T06:03:17;8.87;;;6.17;;
13335;SDS011;6737;51.480;11.962;2022-09-25T06:05:43;10.63;;;6.37;;
13335;SDS011;6737;51.480;11.962;2022-09-25T06:08:10;8.63;;;6.47;;
13335;SDS011;6737;51.480;11.962;2022-09-25T06:10:38;8.90;;;6.30;;
13335;SDS011;6737;51.480;11.962;2022-09-25T06:13:04;9.97;;;6.50;;
13335;SDS011;6737;51.480;11.962;2022-09-25T06:15:34;9.00;;;6.17;;
13335;SDS011;6737;51.480;11.962;2022-09-25T06:18:05;9.20;;;6.10;;
13335;SDS011;6737;51.480;11.962;2022-09-25T06:20:33;8.63;;;5.63;;
13335;SDS011;6737;51.480;11.962;2022-09-25T06:22:59;8.63;;;6.27;;
13335;SDS011;6737;51.480;11.962;2022-09-25T06:25:26;8.20;;;6.13;;
13335;SDS011;6737;51.480;11.962;2022-09-25T06:27:56;9.67;;;6.63;;
13335;SDS011;6737;51.480;11.962;2022-09-25T06:30:25;8.53;;;6.20;;
13335;SDS011;6737;51.480;11.962;2022-09-25T06:32:56;11.27;;;6.67;;
13335;SDS011;6737;51.480;11.962;2022-09-25T06:35:22;7.37;;;5.80;;
13335;SDS011;6737;51.480;11.962;2022-09-25T06:37:48;8.17;;;5.73;;
13335;SDS011;6737;51.480;11.962;2022-09-25T06:40:14;6.83;;;5.37;;
13335;SDS011;6737;51.480;11.962;2022-09-25T06:42:40;7.53;;;5.90;;
13335;SDS011;6737;51.480;11.962;2022-09-25T06:45:06;7.50;;;5.80;;
13335;SDS011;6737;51.480;11.962;2022-09-25T06:47:35;8.77;;;5.90;;
13335;SDS011;6737;51.480;11.962;2022-09-25T06:50:02;8.60;;;6.03;;
13335;SDS011;6737;51.480;11.962;2022-09-25T06:52:28;7.60;;;5.70;;
13335;SDS011;6737;51.480;11.962;2022-09-25T06:54:54;7.80;;;5.37;;
13335;SDS011;6737;51.480;11.962;2022-09-25T06:57:19;8.53;;;6.23;;
13335;SDS011;6737;51.480;11.962;2022-09-25T06:59:45;9.47;;;6.67;;
13335;SDS011;6737;51.480;11.962;2022-09-25T07:02:11;7.63;;;6.03;;
13335;SDS011;6737;51.480;11.962;2022-09-25T07:04:55;9.17;;;6.00;;
13335;SDS011;6737;51.480;11.962;2022-09-25T07:07:21;9.10;;;6.50;;
13335;SDS011;6737;51.480;11.962;2022-09-25T07:09:48;8.33;;;5.97;;
13335;SDS011;6737;51.480;11.962;2022-09-25T07:12:14;10.07;;;6.17;;
13335;SDS011;6737;51.480;11.962;2022-09-25T07:14:42;8.97;;;6.30;;
13335;SDS011;6737;51.480;11.962;2022-09-25T07:17:11;9.30;;;6.53;;
13335;SDS011;6737;51.480;11.962;2022-09-25T07:19:37;8.30;;;6.13;;
13335;SDS011;6737;51.480;11.962;2022-09-25T07:22:03;8.87;;;6.20;;
13335;SDS011;6737;51.480;11.962;2022-09-25T07:24:29;10.37;;;6.70;;
13335;SDS011;6737;51.480;11.962;2022-09-25T07:26:55;8.57;;;6.40;;
13335;SDS011;6737;51.480;11.962;2022-09-25T07:29:21;8.73;;;6.40;;
13335;SDS011;6737;51.480;11.962;2022-09-25T07:31:46;9.10;;;6.10;;
13335;SDS011;6737;51.480;11.962;2022-09-25T07:34:12;7.87;;;6.03;;
13335;SDS011;6737;51.480;11.962;2022-09-25T07:36:38;8.57;;;6.03;;
13335;SDS011;6737;51.480;11.962;2022-09-25T07:39:06;8.63;;;6.00;;
13335;SDS011;6737;51.480;11.962;2022-09-25T07:41:33;9.67;;;6.60;;
13335;SDS011;6737;51.480;11.962;2022-09-25T07:44:01;11.90;;;7.17;;
13335;SDS011;6737;51.480;11.962;2022-09-25T07:46:27;9.20;;;6.77;;
13335;SDS011;6737;51.480;11.962;2022-09-25T07:48:53;8.60;;;6.63;;
13335;SDS011;6737;51.480;11.962;2022-09-25T07:51:19;10.93;;;7.03;;
13335;SDS011;6737;51.480;11.962;2022-09-25T07:53:46;9.50;;;6.83;;
13335;SDS011;6737;51.480;11.962;2022-09-25T07:56:12;10.07;;;6.70;;
13335;SDS011;6737;51.480;11.962;2022-09-25T07:58:39;9.70;;;6.63;;
13335;SDS011;6737;51.480;11.962;2022-09-25T08:01:07;10.37;;;6.40;;
13335;SDS011;6737;51.480;11.962;2022-09-25T08:03:35;8.93;;;6.30;;
13335;SDS011;6737;51.480;11.962;2022-09-25T08:08:33;13.43;;;7.10;;
13335;SDS011;6737;51.480;11.962;2022-09-25T08:11:00;11.20;;;7.17;;
13335;SDS011;6737;51.480;11.962;2022-09-25T08:13:27;10.30;;;7.10;;
13335;SDS011;6737;51.480;11.962;2022-09-25T08:15:56;9.07;;;6.70;;
13335;SDS011;6737;51.480;11.962;2022-09-25T08:18:22;11.63;;;7.60;;
13335;SDS011;6737;51.480;11.962;2022-09-25T08:20:48;10.00;;;6.87;;
13335;SDS011;6737;51.480;11.962;2022-09-25T08:23:13;9.80;;;7.30;;
13335;SDS011;6737;51.480;11.962;2022-09-25T08:25:39;9.73;;;6.43;;
13335;SDS011;6737;51.480;11.962;2022-09-25T08:28:05;9.33;;;6.30;;
13335;SDS011;6737;51.480;11.962;2022-09-25T08:30:31;10.77;;;6.70;;
13335;SDS011;6737;51.480;11.962;2022-09-25T08:32:57;9.50;;;6.27;;
13335;SDS011;6737;51.480;11.962;2022-09-25T08:35:22;9.80;;;6.57;;
13335;SDS011;6737;51.480;11.962;2022-09-25T08:37:48;9.27;;;6.53;;
13335;SDS011;6737;51.480;11.962;2022-09-25T08:40:15;9.60;;;6.67;;
13335;SDS011;6737;51.480;11.962;2022-09-25T08:42:47;9.23;;;6.27;;
13335;SDS011;6737;51.480;11.962;2022-09-25T08:45:39;9.67;;;6.93;;
13335;SDS011;6737;51.480;11.962;2022-09-25T08:48:29;9.40;;;6.27;;
13335;SDS011;6737;51.480;11.962;2022-09-25T08:54:02;9.90;;;7.03;;
13335;SDS011;6737;51.480;11.962;2022-09-25T08:56:29;9.77;;;6.13;;
13335;SDS011;6737;51.480;11.962;2022-09-25T08:59:10;9.57;;;6.63;;
13335;SDS011;6737;51.480;11.962;2022-09-25T09:01:51;10.47;;;6.13;;
13335;SDS011;6737;51.480;11.962;2022-09-25T09:04:25;9.27;;;5.90;;
13335;SDS011;6737;51.480;11.962;2022-09-25T09:06:57;10.17;;;6.47;;
13335;SDS011;6737;51.480;11.962;2022-09-25T09:09:43;9.37;;;6.70;;
13335;SDS011;6737;51.480;11.962;2022-09-25T09:12:14;8.87;;;6.03;;
13335;SDS011;6737;51.480;11.962;2022-09-25T09:14:47;10.20;;;6.60;;
13335;SDS011;6737;51.480;11.962;2022-09-25T09:17:39;10.87;;;6.40;;
13335;SDS011;6737;51.480;11.962;2022-09-25T09:20:13;8.10;;;6.10;;
13335;SDS011;6737;51.480;11.962;2022-09-25T09:22:45;7.77;;;5.23;;
13335;SDS011;6737;51.480;11.962;2022-09-25T09:25:25;11.67;;;6.50;;
13335;SDS011;6737;51.480;11.962;2022-09-25T09:30:30;7.67;;;5.70;;
13335;SDS011;6737;51.480;11.962;2022-09-25T09:38:42;7.20;;;4.90;;
13335;SDS011;6737;51.480;11.962;2022-09-25T09:44:27;8.47;;;5.50;;
13335;SDS011;6737;51.480;11.962;2022-09-25T09:52:50;7.50;;;4.97;;
13335;SDS011;6737;51.480;11.962;2022-09-25T09:58:07;6.47;;;4.67;;
13335;SDS011;6737;51.480;11.962;2022-09-25T10:00:45;6.30;;;4.20;;
13335;SDS011;6737;51.480;11.962;2022-09-25T10:03:25;5.05;;;3.97;;
13335;SDS011;6737;51.480;11.962;2022-09-25T10:06:03;6.18;;;3.85;;
13335;SDS011;6737;51.480;11.962;2022-09-25T10:08:35;4.93;;;3.60;;
13335;SDS011;6737;51.480;11.962;2022-09-25T10:11:03;5.38;;;4.03;;
13335;SDS011;6737;51.480;11.962;2022-09-25T10:13:36;5.10;;;3.67;;
13335;SDS011;6737;51.480;11.962;2022-09-25T10:18:52;5.72;;;3.50;;
13335;SDS011;6737;51.480;11.962;2022-09-25T10:21:20;4.45;;;3.47;;
13335;SDS011;6737;51.480;11.962;2022-09-25T10:23:50;4.60;;;3.47;;
13335;SDS011;6737;51.480;11.962;2022-09-25T10:26:34;4.38;;;2.97;;
13335;SDS011;6737;51.480;11.962;2022-09-25T10:31:45;3.47;;;2.95;;
13335;SDS011;6737;51.480;11.962;2022-09-25T10:36:41;4.75;;;3.58;;
13335;SDS011;6737;51.480;11.962;2022-09-25T10:41:59;3.40;;;2.95;;
13335;SDS011;6737;51.480;11.962;2022-09-25T10:44:36;3.50;;;3.03;;
13335;SDS011;6737;51.480;11.962;2022-09-25T10:50:11;5.03;;;3.13;;
13335;SDS011;6737;51.480;11.962;2022-09-25T10:58:28;4.63;;;3.10;;
13335;SDS011;6737;51.480;11.962;2022-09-25T11:01:07;5.13;;;3.00;;
13335;SDS011;6737;51.480;11.962;2022-09-25T11:06:26;3.67;;;2.83;;
13335;SDS011;6737;51.480;11.962;2022-09-25T11:11:33;4.97;;;3.10;;
13335;SDS011;6737;51.480;11.962;2022-09-25T11:14:02;4.28;;;2.90;;
13335;SDS011;6737;51.480;11.962;2022-09-25T11:16:43;4.85;;;3.35;;
13335;SDS011;6737;51.480;11.962;2022-09-25T11:19:28;3.38;;;2.50;;
13335;SDS011;6737;51.480;11.962;2022-09-25T11:24:45;3.10;;;2.45;;
13335;SDS011;6737;51.480;11.962;2022-09-25T11:27:25;3.72;;;2.33;;
13335;SDS011;6737;51.480;11.962;2022-09-25T11:44:21;2.85;;;2.15;;
13335;SDS011;6737;51.480;11.962;2022-09-25T11:47:14;2.95;;;2.20;;
13335;SDS011;6737;51.480;11.962;2022-09-25T11:49:46;2.45;;;1.95;;
13335;SDS011;6737;51.480;11.962;2022-09-25T12:00:08;3.13;;;2.10;;
13335;SDS011;6737;51.480;11.962;2022-09-25T12:06:14;2.15;;;1.77;;
13335;SDS011;6737;51.480;11.962;2022-09-25T12:13:37;2.70;;;2.05;;
13335;SDS011;6737;51.480;11.962;2022-09-25T12:21:13;4.35;;;2.42;;
13335;SDS011;6737;51.480;11.962;2022-09-25T12:26:47;2.60;;;2.20;;
13335;SDS011;6737;51.480;11.962;2022-09-25T12:35:19;2.85;;;2.30;;
13335;SDS011;6737;51.480;11.962;2022-09-25T12:38:00;4.10;;;2.67;;
13335;SDS011;6737;51.480;11.962;2022-09-25T12:43:10;3.33;;;2.50;;
13335;SDS011;6737;51.480;11.962;2022-09-25T12:45:59;2.38;;;1.95;;
13335;SDS011;6737;51.480;11.962;2022-09-25T12:48:35;4.13;;;2.35;;
13335;SDS011;6737;51.480;11.962;2022-09-25T12:51:19;3.50;;;2.40;;
13335;SDS011;6737;51.480;11.962;2022-09-25T13:04:15;2.65;;;2.20;;
13335;SDS011;6737;51.480;11.962;2022-09-25T13:09:27;3.47;;;2.40;;
13335;SDS011;6737;51.480;11.962;2022-09-25T13:12:29;2.40;;;2.00;;
13335;SDS011;6737;51.480;11.962;2022-09-25T13:15:08;3.03;;;2.22;;
13335;SDS011;6737;51.480;11.962;2022-09-25T13:17:38;2.67;;;2.20;;
13335;SDS011;6737;51.480;11.962;2022-09-25T13:23:02;3.00;;;2.30;;
13335;SDS011;6737;51.480;11.962;2022-09-25T13:25:28;2.78;;;2.13;;
13335;SDS011;6737;51.480;11.962;2022-09-25T13:28:07;3.05;;;2.42;;
13335;SDS011;6737;51.480;11.962;2022-09-25T13:30:38;3.22;;;2.40;;
13335;SDS011;6737;51.480;11.962;2022-09-25T13:33:04;2.28;;;1.88;;
13335;SDS011;6737;51.480;11.962;2022-09-25T13:35:30;2.60;;;2.00;;
13335;SDS011;6737;51.480;11.962;2022-09-25T13:38:14;4.55;;;2.00;;
13335;SDS011;6737;51.480;11.962;2022-09-25T13:41:07;2.65;;;2.20;;
13335;SDS011;6737;51.480;11.962;2022-09-25T13:43:37;2.53;;;2.00;;
13335;SDS011;6737;51.480;11.962;2022-09-25T13:48:41;2.03;;;1.73;;
13335;SDS011;6737;51.480;11.962;2022-09-25T13:53:53;3.15;;;2.20;;
13335;SDS011;6737;51.480;11.962;2022-09-25T14:06:39;2.53;;;2.08;;
13335;SDS011;6737;51.480;11.962;2022-09-25T14:09:09;2.58;;;1.77;;
13335;SDS011;6737;51.480;11.962;2022-09-25T14:11:42;3.55;;;2.13;;
13335;SDS011;6737;51.480;11.962;2022-09-25T14:14:41;2.83;;;2.00;;
13335;SDS011;6737;51.480;11.962;2022-09-25T14:17:18;2.42;;;2.10;;
13335;SDS011;6737;51.480;11.962;2022-09-25T14:19:46;2.92;;;2.17;;
13335;SDS011;6737;51.480;11.962;2022-09-25T14:22:26;4.35;;;2.28;;
13335;SDS011;6737;51.480;11.962;2022-09-25T14:24:57;3.10;;;1.88;;
13335;SDS011;6737;51.480;11.962;2022-09-25T14:27:24;3.45;;;2.67;;
13335;SDS011;6737;51.480;11.962;2022-09-25T14:30:00;3.05;;;2.42;;
13335;SDS011;6737;51.480;11.962;2022-09-25T14:32:52;3.92;;;2.35;;
13335;SDS011;6737;51.480;11.962;2022-09-25T14:35:31;2.42;;;2.03;;
13335;SDS011;6737;51.480;11.962;2022-09-25T14:38:41;2.88;;;2.42;;
13335;SDS011;6737;51.480;11.962;2022-09-25T14:41:28;2.90;;;2.20;;
13335;SDS011;6737;51.480;11.962;2022-09-25T14:46:51;4.32;;;2.05;;
13335;SDS011;6737;51.480;11.962;2022-09-25T14:49:23;2.58;;;1.90;;
13335;SDS011;6737;51.480;11.962;2022-09-25T14:51:53;2.08;;;1.70;;
13335;SDS011;6737;51.480;11.962;2022-09-25T14:54:24;2.40;;;1.92;;
13335;SDS011;6737;51.480;11.962;2022-09-25T14:56:55;2.92;;;2.10;;
13335;SDS011;6737;51.480;11.962;2022-09-25T14:59:38;2.38;;;1.85;;
13335;SDS011;6737;51.480;11.962;2022-09-25T15:02:17;1.88;;;1.50;;
13335;SDS011;6737;51.480;11.962;2022-09-25T15:07:51;2.45;;;1.70;;
13335;SDS011;6737;51.480;11.962;2022-09-25T15:10:26;2.72;;;1.70;;
13335;SDS011;6737;51.480;11.962;2022-09-25T15:15:57;2.55;;;2.00;;
13335;SDS011;6737;51.480;11.962;2022-09-25T15:18:43;2.33;;;1.90;;
13335;SDS011;6737;51.480;11.962;2022-09-25T15:21:35;4.28;;;2.17;;
13335;SDS011;6737;51.480;11.962;2022-09-25T15:24:02;2.95;;;2.28;;
13335;SDS011;6737;51.480;11.962;2022-09-25T15:26:31;2.92;;;2.30;;
13335;SDS011;6737;51.480;11.962;2022-09-25T15:29:03;3.35;;;2.45;;
13335;SDS011;6737;51.480;11.962;2022-09-25T15:31:44;3.28;;;2.20;;
13335;SDS011;6737;51.480;11.962;2022-09-25T15:34:14;3.53;;;2.30;;
13335;SDS011;6737;51.480;11.962;2022-09-25T15:36:48;2.70;;;2.35;;
13335;SDS011;6737;51.480;11.962;2022-09-25T15:39:21;3.92;;;2.90;;
13335;SDS011;6737;51.480;11.962;2022-09-25T15:41:49;3.22;;;2.47;;
13335;SDS011;6737;51.480;11.962;2022-09-25T15:44:22;4.50;;;2.90;;
13335;SDS011;6737;51.480;11.962;2022-09-25T15:46:51;3.38;;;2.50;;
13335;SDS011;6737;51.480;11.962;2022-09-25T15:49:32;3.50;;;2.35;;
13335;SDS011;6737;51.480;11.962;2022-09-25T15:52:02;3.40;;;2.63;;
13335;SDS011;6737;51.480;11.962;2022-09-25T15:57:27;2.90;;;2.25;;
13335;SDS011;6737;51.480;11.962;2022-09-25T15:59:55;3.63;;;2.28;;
13335;SDS011;6737;51.480;11.962;2022-09-25T16:02:46;3.63;;;2.50;;
13335;SDS011;6737;51.480;11.962;2022-09-25T16:05:36;3.05;;;2.35;;
13335;SDS011;6737;51.480;11.962;2022-09-25T16:08:14;3.47;;;2.17;;
13335;SDS011;6737;51.480;11.962;2022-09-25T16:10:46;2.38;;;1.92;;
13335;SDS011;6737;51.480;11.962;2022-09-25T16:13:23;2.97;;;2.05;;
13335;SDS011;6737;51.480;11.962;2022-09-25T16:15:50;3.67;;;2.17;;
13335;SDS011;6737;51.480;11.962;2022-09-25T16:20:52;3.83;;;2.20;;
13335;SDS011;6737;51.480;11.962;2022-09-25T16:23:40;2.42;;;2.00;;
13335;SDS011;6737;51.480;11.962;2022-09-25T16:26:17;3.20;;;2.10;;
13335;SDS011;6737;51.480;11.962;2022-09-25T16:29:06;2.30;;;1.88;;
13335;SDS011;6737;51.480;11.962;2022-09-25T16:31:47;2.80;;;2.10;;
13335;SDS011;6737;51.480;11.962;2022-09-25T16:34:19;3.63;;;2.10;;
13335;SDS011;6737;51.480;11.962;2022-09-25T16:36:53;3.33;;;2.10;;
13335;SDS011;6737;51.480;11.962;2022-09-25T16:39:26;3.40;;;2.45;;
13335;SDS011;6737;51.480;11.962;2022-09-25T16:44:46;4.15;;;2.35;;
13335;SDS011;6737;51.480;11.962;2022-09-25T16:47:19;4.13;;;2.55;;
13335;SDS011;6737;51.480;11.962;2022-09-25T16:49:46;2.60;;;2.10;;
13335;SDS011;6737;51.480;11.962;2022-09-25T16:52:16;2.20;;;1.95;;
13335;SDS011;6737;51.480;11.962;2022-09-25T16:55:04;3.53;;;2.40;;
13335;SDS011;6737;51.480;11.962;2022-09-25T16:57:34;4.80;;;2.40;;
13335;SDS011;6737;51.480;11.962;2022-09-25T17:00:00;3.00;;;2.43;;
13335;SDS011;6737;51.480;11.962;2022-09-25T17:02:35;2.65;;;2.22;;
13335;SDS011;6737;51.480;11.962;2022-09-25T17:05:07;2.97;;;2.40;;
13335;SDS011;6737;51.480;11.962;2022-09-25T17:07:44;3.92;;;2.72;;
13335;SDS011;6737;51.480;11.962;2022-09-25T17:10:15;2.90;;;2.17;;
13335;SDS011;6737;51.480;11.962;2022-09-25T17:12:43;3.88;;;2.40;;
13335;SDS011;6737;51.480;11.962;2022-09-25T17:15:17;3.92;;;2.65;;
13335;SDS011;6737;51.480;11.962;2022-09-25T17:17:51;3.10;;;2.43;;
13335;SDS011;6737;51.480;11.962;2022-09-25T17:20:21;3.33;;;2.23;;
13335;SDS011;6737;51.480;11.962;2022-09-25T17:22:49;3.43;;;2.47;;
13335;SDS011;6737;51.480;11.962;2022-09-25T17:28:01;3.08;;;2.45;;
13335;SDS011;6737;51.480;11.962;2022-09-25T17:30:28;3.43;;;2.70;;
13335;SDS011;6737;51.480;11.962;2022-09-25T17:32:54;3.70;;;2.47;;
13335;SDS011;6737;51.480;11.962;2022-09-25T17:35:27;2.95;;;2.30;;
13335;SDS011;6737;51.480;11.962;2022-09-25T17:37:59;3.10;;;2.38;;
13335;SDS011;6737;51.480;11.962;2022-09-25T17:40:28;2.77;;;2.10;;
13335;SDS011;6737;51.480;11.962;2022-09-25T17:42:55;3.63;;;2.60;;
13335;SDS011;6737;51.480;11.962;2022-09-25T17:45:28;2.97;;;2.43;;
13335;SDS011;6737;51.480;11.962;2022-09-25T17:48:28;3.70;;;2.70;;
13335;SDS011;6737;51.480;11.962;2022-09-25T17:51:28;4.20;;;3.17;;
13335;SDS011;6737;51.480;11.962;2022-09-25T17:53:47;5.15;;;3.20;;
13335;SDS011;6737;51.480;11.962;2022-09-25T17:56:14;5.87;;;3.07;;
13335;SDS011;6737;51.480;11.962;2022-09-25T17:58:40;4.67;;;2.80;;
13335;SDS011;6737;51.480;11.962;2022-09-25T18:01:10;4.47;;;3.15;;
13335;SDS011;6737;51.480;11.962;2022-09-25T18:03:47;3.97;;;3.13;;
13335;SDS011;6737;51.480;11.962;2022-09-25T18:06:16;4.37;;;3.20;;
13335;SDS011;6737;51.480;11.962;2022-09-25T18:08:44;4.30;;;2.90;;
13335;SDS011;6737;51.480;11.962;2022-09-25T18:11:11;6.30;;;3.27;;
13335;SDS011;6737;51.480;11.962;2022-09-25T18:13:38;4.00;;;3.10;;
13335;SDS011;6737;51.480;11.962;2022-09-25T18:16:04;5.60;;;3.67;;